sensor_id;sensor_type;location;lat;lon;timestamp;P1;durP1;ratioP1;P2;durP2;ratioP2
48207;SDS011;33997;53.278;9.708;2024-03-08T00:00:58;15.70;;;6.60;;
48207;SDS011;33997;53.278;9.708;2024-03-08T00:03:23;14.73;;;5.80;;
48207;SDS011;33997;53.278;9.708;2024-03-08T00:05:49;12.82;;;6.30;;
48207;SDS011;33997;53.278;9.708;2024-03-08T00:08:14;13.65;;;5.65;;
48207;SDS011;33997;53.278;9.708;2024-03-08T00:10:40;13.57;;;5.90;;
48207;SDS011;33997;53.278;9.708;2024-03-08T00:13:05;11.82;;;6.03;;
48207;SDS011;33997;53.278;9.708;2024-03-08T00:15:31;11.02;;;6.35;;
48207;SDS011;33997;53.278;9.708;2024-03-08T00:17:57;13.60;;;6.20;;
48207;SDS011;33997;53.278;9.708;2024-03-08T00:20:22;14.18;;;5.68;;
48207;SDS011;33997;53.278;9.708;2024-03-08T00:22:48;13.27;;;5.95;;
48207;SDS011;33997;53.278;9.708;2024-03-08T00:25:14;11.93;;;5.28;;
48207;SDS011;33997;53.278;9.708;2024-03-08T00:27:39;16.67;;;7.18;;
48207;SDS011;33997;53.278;9.708;2024-03-08T00:30:06;18.15;;;5.60;;
48207;SDS011;33997;53.278;9.708;2024-03-08T00:32:32;11.43;;;5.68;;
48207;SDS011;33997;53.278;9.708;2024-03-08T00:34:58;11.77;;;6.15;;
48207;SDS011;33997;53.278;9.708;2024-03-08T00:37:24;13.43;;;6.32;;
48207;SDS011;33997;53.278;9.708;2024-03-08T00:39:50;15.02;;;5.10;;
48207;SDS011;33997;53.278;9.708;2024-03-08T00:42:19;14.88;;;6.25;;
48207;SDS011;33997;53.278;9.708;2024-03-08T00:44:45;11.77;;;6.20;;
48207;SDS011;33997;53.278;9.708;2024-03-08T00:47:11;11.52;;;5.57;;
48207;SDS011;33997;53.278;9.708;2024-03-08T00:49:37;13.98;;;5.97;;
48207;SDS011;33997;53.278;9.708;2024-03-08T00:52:03;13.32;;;6.18;;
48207;SDS011;33997;53.278;9.708;2024-03-08T00:54:31;12.43;;;6.25;;
48207;SDS011;33997;53.278;9.708;2024-03-08T00:56:57;11.27;;;5.43;;
48207;SDS011;33997;53.278;9.708;2024-03-08T00:59:23;14.57;;;6.88;;
48207;SDS011;33997;53.278;9.708;2024-03-08T01:01:48;14.80;;;7.35;;
48207;SDS011;33997;53.278;9.708;2024-03-08T01:04:14;12.80;;;6.82;;
48207;SDS011;33997;53.278;9.708;2024-03-08T01:06:39;14.85;;;6.82;;
48207;SDS011;33997;53.278;9.708;2024-03-08T01:09:05;12.73;;;5.88;;
48207;SDS011;33997;53.278;9.708;2024-03-08T01:11:32;13.18;;;6.45;;
48207;SDS011;33997;53.278;9.708;2024-03-08T01:13:58;11.35;;;5.35;;
48207;SDS011;33997;53.278;9.708;2024-03-08T01:16:24;11.25;;;5.35;;
48207;SDS011;33997;53.278;9.708;2024-03-08T01:18:49;16.35;;;6.68;;
48207;SDS011;33997;53.278;9.708;2024-03-08T01:21:15;14.60;;;5.85;;
48207;SDS011;33997;53.278;9.708;2024-03-08T01:23:40;14.50;;;6.20;;
48207;SDS011;33997;53.278;9.708;2024-03-08T01:26:06;11.43;;;6.18;;
48207;SDS011;33997;53.278;9.708;2024-03-08T01:28:31;17.55;;;6.18;;
48207;SDS011;33997;53.278;9.708;2024-03-08T01:30:59;13.15;;;5.88;;
48207;SDS011;33997;53.278;9.708;2024-03-08T01:33:25;15.40;;;6.20;;
48207;SDS011;33997;53.278;9.708;2024-03-08T01:35:51;11.00;;;5.63;;
48207;SDS011;33997;53.278;9.708;2024-03-08T01:38:17;11.52;;;5.70;;
48207;SDS011;33997;53.278;9.708;2024-03-08T01:40:43;16.02;;;7.07;;
48207;SDS011;33997;53.278;9.708;2024-03-08T01:43:22;15.63;;;6.65;;
48207;SDS011;33997;53.278;9.708;2024-03-08T01:45:54;13.23;;;6.15;;
48207;SDS011;33997;53.278;9.708;2024-03-08T01:48:24;16.17;;;6.70;;
48207;SDS011;33997;53.278;9.708;2024-03-08T01:50:51;13.32;;;5.93;;
48207;SDS011;33997;53.278;9.708;2024-03-08T01:53:19;13.30;;;6.50;;
48207;SDS011;33997;53.278;9.708;2024-03-08T01:55:46;11.95;;;6.78;;
48207;SDS011;33997;53.278;9.708;2024-03-08T01:58:13;14.98;;;6.57;;
48207;SDS011;33997;53.278;9.708;2024-03-08T02:00:44;15.15;;;5.68;;
48207;SDS011;33997;53.278;9.708;2024-03-08T02:03:14;14.05;;;6.05;;
48207;SDS011;33997;53.278;9.708;2024-03-08T02:05:42;14.27;;;6.85;;
48207;SDS011;33997;53.278;9.708;2024-03-08T02:08:10;12.80;;;5.80;;
48207;SDS011;33997;53.278;9.708;2024-03-08T02:10:40;13.90;;;6.63;;
48207;SDS011;33997;53.278;9.708;2024-03-08T02:13:06;10.65;;;5.57;;
48207;SDS011;33997;53.278;9.708;2024-03-08T02:18:17;15.57;;;5.35;;
48207;SDS011;33997;53.278;9.708;2024-03-08T02:20:43;11.57;;;5.75;;
48207;SDS011;33997;53.278;9.708;2024-03-08T02:23:09;15.43;;;6.70;;
48207;SDS011;33997;53.278;9.708;2024-03-08T02:25:35;14.57;;;6.35;;
48207;SDS011;33997;53.278;9.708;2024-03-08T02:28:01;18.25;;;7.05;;
48207;SDS011;33997;53.278;9.708;2024-03-08T02:30:26;14.20;;;6.32;;
48207;SDS011;33997;53.278;9.708;2024-03-08T02:32:54;12.35;;;6.13;;
48207;SDS011;33997;53.278;9.708;2024-03-08T02:35:20;11.63;;;6.15;;
48207;SDS011;33997;53.278;9.708;2024-03-08T02:37:46;21.00;;;6.10;;
48207;SDS011;33997;53.278;9.708;2024-03-08T02:40:12;15.10;;;6.88;;
48207;SDS011;33997;53.278;9.708;2024-03-08T02:42:38;15.63;;;6.90;;
48207;SDS011;33997;53.278;9.708;2024-03-08T02:45:04;14.07;;;6.25;;
48207;SDS011;33997;53.278;9.708;2024-03-08T02:47:30;14.02;;;6.68;;
48207;SDS011;33997;53.278;9.708;2024-03-08T02:49:56;16.25;;;7.55;;
48207;SDS011;33997;53.278;9.708;2024-03-08T02:52:22;17.10;;;7.80;;
48207;SDS011;33997;53.278;9.708;2024-03-08T02:54:47;11.82;;;5.82;;
48207;SDS011;33997;53.278;9.708;2024-03-08T02:57:13;14.32;;;6.22;;
48207;SDS011;33997;53.278;9.708;2024-03-08T02:59:39;14.77;;;6.35;;
48207;SDS011;33997;53.278;9.708;2024-03-08T03:02:05;15.25;;;6.35;;
48207;SDS011;33997;53.278;9.708;2024-03-08T03:04:31;16.85;;;6.45;;
48207;SDS011;33997;53.278;9.708;2024-03-08T03:06:59;14.45;;;6.20;;
48207;SDS011;33997;53.278;9.708;2024-03-08T03:09:25;14.00;;;6.20;;
48207;SDS011;33997;53.278;9.708;2024-03-08T03:11:52;15.02;;;5.80;;
48207;SDS011;33997;53.278;9.708;2024-03-08T03:14:19;12.32;;;6.15;;
48207;SDS011;33997;53.278;9.708;2024-03-08T03:16:46;17.75;;;7.30;;
48207;SDS011;33997;53.278;9.708;2024-03-08T03:19:11;14.80;;;6.43;;
48207;SDS011;33997;53.278;9.708;2024-03-08T03:21:37;15.32;;;6.13;;
48207;SDS011;33997;53.278;9.708;2024-03-08T03:24:03;15.43;;;6.78;;
48207;SDS011;33997;53.278;9.708;2024-03-08T03:26:29;15.65;;;6.63;;
48207;SDS011;33997;53.278;9.708;2024-03-08T03:28:56;20.00;;;6.97;;
48207;SDS011;33997;53.278;9.708;2024-03-08T03:31:22;13.48;;;6.60;;
48207;SDS011;33997;53.278;9.708;2024-03-08T03:33:49;16.90;;;7.05;;
48207;SDS011;33997;53.278;9.708;2024-03-08T03:36:16;15.02;;;7.38;;
48207;SDS011;33997;53.278;9.708;2024-03-08T03:38:43;17.15;;;6.80;;
48207;SDS011;33997;53.278;9.708;2024-03-08T03:41:08;16.73;;;7.90;;
48207;SDS011;33997;53.278;9.708;2024-03-08T03:46:05;16.38;;;6.82;;
48207;SDS011;33997;53.278;9.708;2024-03-08T03:48:32;16.13;;;6.55;;
48207;SDS011;33997;53.278;9.708;2024-03-08T03:50:57;12.48;;;6.22;;
48207;SDS011;33997;53.278;9.708;2024-03-08T03:53:23;17.52;;;6.93;;
48207;SDS011;33997;53.278;9.708;2024-03-08T03:55:50;14.73;;;6.60;;
48207;SDS011;33997;53.278;9.708;2024-03-08T03:58:16;15.43;;;6.60;;
48207;SDS011;33997;53.278;9.708;2024-03-08T04:03:13;17.25;;;6.43;;
48207;SDS011;33997;53.278;9.708;2024-03-08T04:05:38;16.70;;;6.13;;
48207;SDS011;33997;53.278;9.708;2024-03-08T04:08:04;17.95;;;7.55;;
48207;SDS011;33997;53.278;9.708;2024-03-08T04:10:31;14.10;;;6.22;;
48207;SDS011;33997;53.278;9.708;2024-03-08T04:12:56;14.80;;;5.75;;
48207;SDS011;33997;53.278;9.708;2024-03-08T04:15:22;16.63;;;6.93;;
48207;SDS011;33997;53.278;9.708;2024-03-08T04:17:48;16.88;;;7.25;;
48207;SDS011;33997;53.278;9.708;2024-03-08T04:20:13;13.77;;;6.00;;
48207;SDS011;33997;53.278;9.708;2024-03-08T04:22:39;16.20;;;6.80;;
48207;SDS011;33997;53.278;9.708;2024-03-08T04:25:05;12.65;;;6.15;;
48207;SDS011;33997;53.278;9.708;2024-03-08T04:27:31;16.02;;;7.00;;
48207;SDS011;33997;53.278;9.708;2024-03-08T04:29:58;15.68;;;7.57;;
48207;SDS011;33997;53.278;9.708;2024-03-08T04:32:24;13.82;;;6.10;;
48207;SDS011;33997;53.278;9.708;2024-03-08T04:34:49;15.35;;;7.10;;
48207;SDS011;33997;53.278;9.708;2024-03-08T04:37:15;18.25;;;6.85;;
48207;SDS011;33997;53.278;9.708;2024-03-08T04:39:43;17.10;;;6.95;;
48207;SDS011;33997;53.278;9.708;2024-03-08T04:42:08;16.08;;;6.85;;
48207;SDS011;33997;53.278;9.708;2024-03-08T04:44:34;13.68;;;6.10;;
48207;SDS011;33997;53.278;9.708;2024-03-08T04:47:01;16.02;;;7.13;;
48207;SDS011;33997;53.278;9.708;2024-03-08T04:49:27;15.95;;;6.18;;
48207;SDS011;33997;53.278;9.708;2024-03-08T04:51:53;17.30;;;6.45;;
48207;SDS011;33997;53.278;9.708;2024-03-08T04:54:18;16.95;;;6.40;;
48207;SDS011;33997;53.278;9.708;2024-03-08T04:56:44;13.35;;;6.50;;
48207;SDS011;33997;53.278;9.708;2024-03-08T04:59:09;15.10;;;6.22;;
48207;SDS011;33997;53.278;9.708;2024-03-08T05:01:35;15.95;;;6.90;;
48207;SDS011;33997;53.278;9.708;2024-03-08T05:04:03;16.48;;;7.55;;
48207;SDS011;33997;53.278;9.708;2024-03-08T05:06:29;15.90;;;7.03;;
48207;SDS011;33997;53.278;9.708;2024-03-08T05:08:55;18.50;;;8.55;;
48207;SDS011;33997;53.278;9.708;2024-03-08T05:11:21;13.88;;;6.47;;
48207;SDS011;33997;53.278;9.708;2024-03-08T05:13:46;18.15;;;6.88;;
48207;SDS011;33997;53.278;9.708;2024-03-08T05:16:11;16.40;;;7.82;;
48207;SDS011;33997;53.278;9.708;2024-03-08T05:18:40;18.55;;;7.65;;
48207;SDS011;33997;53.278;9.708;2024-03-08T05:21:07;19.42;;;7.90;;
48207;SDS011;33997;53.278;9.708;2024-03-08T05:23:34;19.25;;;8.30;;
48207;SDS011;33997;53.278;9.708;2024-03-08T05:25:59;13.82;;;7.25;;
48207;SDS011;33997;53.278;9.708;2024-03-08T05:28:25;15.65;;;6.78;;
48207;SDS011;33997;53.278;9.708;2024-03-08T05:30:51;19.90;;;7.78;;
48207;SDS011;33997;53.278;9.708;2024-03-08T05:33:17;17.25;;;7.32;;
48207;SDS011;33997;53.278;9.708;2024-03-08T05:35:42;15.82;;;6.75;;
48207;SDS011;33997;53.278;9.708;2024-03-08T05:38:08;19.35;;;7.93;;
48207;SDS011;33997;53.278;9.708;2024-03-08T05:40:33;17.35;;;7.80;;
48207;SDS011;33997;53.278;9.708;2024-03-08T05:42:59;13.82;;;7.30;;
48207;SDS011;33997;53.278;9.708;2024-03-08T05:45:24;16.42;;;7.70;;
48207;SDS011;33997;53.278;9.708;2024-03-08T05:47:50;18.95;;;7.55;;
48207;SDS011;33997;53.278;9.708;2024-03-08T05:50:17;16.83;;;8.00;;
48207;SDS011;33997;53.278;9.708;2024-03-08T05:52:43;18.00;;;7.72;;
48207;SDS011;33997;53.278;9.708;2024-03-08T05:55:08;25.55;;;8.23;;
48207;SDS011;33997;53.278;9.708;2024-03-08T05:57:34;16.73;;;7.25;;
48207;SDS011;33997;53.278;9.708;2024-03-08T06:00:03;21.00;;;7.65;;
48207;SDS011;33997;53.278;9.708;2024-03-08T06:02:29;16.52;;;7.45;;
48207;SDS011;33997;53.278;9.708;2024-03-08T06:04:54;20.45;;;7.93;;
48207;SDS011;33997;53.278;9.708;2024-03-08T06:07:20;20.75;;;8.80;;
48207;SDS011;33997;53.278;9.708;2024-03-08T06:09:45;22.27;;;9.05;;
48207;SDS011;33997;53.278;9.708;2024-03-08T06:12:13;17.90;;;8.27;;
48207;SDS011;33997;53.278;9.708;2024-03-08T06:14:43;18.17;;;7.07;;
48207;SDS011;33997;53.278;9.708;2024-03-08T06:17:11;15.63;;;8.23;;
48207;SDS011;33997;53.278;9.708;2024-03-08T06:19:37;20.23;;;7.70;;
48207;SDS011;33997;53.278;9.708;2024-03-08T06:22:02;17.38;;;8.00;;
48207;SDS011;33997;53.278;9.708;2024-03-08T06:24:30;23.98;;;9.10;;
48207;SDS011;33997;53.278;9.708;2024-03-08T06:26:56;16.98;;;7.45;;
48207;SDS011;33997;53.278;9.708;2024-03-08T06:29:22;16.83;;;7.10;;
48207;SDS011;33997;53.278;9.708;2024-03-08T06:31:48;21.05;;;9.18;;
48207;SDS011;33997;53.278;9.708;2024-03-08T06:34:14;25.48;;;8.95;;
48207;SDS011;33997;53.278;9.708;2024-03-08T06:36:40;23.30;;;9.02;;
48207;SDS011;33997;53.278;9.708;2024-03-08T06:39:06;18.25;;;8.30;;
48207;SDS011;33997;53.278;9.708;2024-03-08T06:41:35;18.15;;;7.97;;
48207;SDS011;33997;53.278;9.708;2024-03-08T06:44:01;18.13;;;8.55;;
48207;SDS011;33997;53.278;9.708;2024-03-08T06:46:26;22.27;;;8.60;;
48207;SDS011;33997;53.278;9.708;2024-03-08T06:48:52;25.17;;;9.27;;
48207;SDS011;33997;53.278;9.708;2024-03-08T06:51:17;21.38;;;8.48;;
48207;SDS011;33997;53.278;9.708;2024-03-08T06:53:43;21.27;;;8.15;;
48207;SDS011;33997;53.278;9.708;2024-03-08T06:56:09;18.40;;;8.38;;
48207;SDS011;33997;53.278;9.708;2024-03-08T06:58:35;17.77;;;7.22;;
48207;SDS011;33997;53.278;9.708;2024-03-08T07:01:00;17.92;;;7.47;;
48207;SDS011;33997;53.278;9.708;2024-03-08T07:03:28;19.23;;;7.82;;
48207;SDS011;33997;53.278;9.708;2024-03-08T07:05:55;22.25;;;8.40;;
48207;SDS011;33997;53.278;9.708;2024-03-08T07:08:23;19.88;;;8.40;;
48207;SDS011;33997;53.278;9.708;2024-03-08T07:10:48;18.98;;;7.93;;
48207;SDS011;33997;53.278;9.708;2024-03-08T07:13:14;24.42;;;8.68;;
48207;SDS011;33997;53.278;9.708;2024-03-08T07:15:40;22.95;;;8.70;;
48207;SDS011;33997;53.278;9.708;2024-03-08T07:18:05;16.83;;;7.88;;
48207;SDS011;33997;53.278;9.708;2024-03-08T07:20:33;16.95;;;8.50;;
48207;SDS011;33997;53.278;9.708;2024-03-08T07:23:00;20.30;;;7.95;;
48207;SDS011;33997;53.278;9.708;2024-03-08T07:25:25;24.20;;;8.98;;
48207;SDS011;33997;53.278;9.708;2024-03-08T07:27:54;18.65;;;9.07;;
48207;SDS011;33997;53.278;9.708;2024-03-08T07:30:21;19.48;;;8.75;;
48207;SDS011;33997;53.278;9.708;2024-03-08T07:33:06;18.17;;;7.68;;
48207;SDS011;33997;53.278;9.708;2024-03-08T07:35:32;25.85;;;8.98;;
48207;SDS011;33997;53.278;9.708;2024-03-08T07:38:07;20.38;;;8.13;;
48207;SDS011;33997;53.278;9.708;2024-03-08T07:40:40;18.65;;;8.63;;
48207;SDS011;33997;53.278;9.708;2024-03-08T07:43:09;18.65;;;8.35;;
48207;SDS011;33997;53.278;9.708;2024-03-08T07:45:36;21.10;;;8.80;;
48207;SDS011;33997;53.278;9.708;2024-03-08T07:48:02;23.45;;;8.65;;
48207;SDS011;33997;53.278;9.708;2024-03-08T07:50:28;16.63;;;7.70;;
48207;SDS011;33997;53.278;9.708;2024-03-08T07:52:54;16.52;;;8.40;;
48207;SDS011;33997;53.278;9.708;2024-03-08T07:55:19;24.35;;;10.13;;
48207;SDS011;33997;53.278;9.708;2024-03-08T07:57:47;17.70;;;8.40;;
48207;SDS011;33997;53.278;9.708;2024-03-08T08:00:13;21.70;;;9.13;;
48207;SDS011;33997;53.278;9.708;2024-03-08T08:02:42;19.85;;;9.07;;
48207;SDS011;33997;53.278;9.708;2024-03-08T08:05:10;24.50;;;9.02;;
48207;SDS011;33997;53.278;9.708;2024-03-08T08:07:36;18.95;;;9.27;;
48207;SDS011;33997;53.278;9.708;2024-03-08T08:10:01;16.20;;;8.15;;
48207;SDS011;33997;53.278;9.708;2024-03-08T08:12:27;18.63;;;9.00;;
48207;SDS011;33997;53.278;9.708;2024-03-08T08:14:54;18.33;;;8.85;;
48207;SDS011;33997;53.278;9.708;2024-03-08T08:17:19;17.48;;;8.77;;
48207;SDS011;33997;53.278;9.708;2024-03-08T08:19:45;17.63;;;8.40;;
48207;SDS011;33997;53.278;9.708;2024-03-08T08:22:11;19.52;;;8.10;;
48207;SDS011;33997;53.278;9.708;2024-03-08T08:24:36;21.83;;;8.48;;
48207;SDS011;33997;53.278;9.708;2024-03-08T08:27:02;18.08;;;8.88;;
48207;SDS011;33997;53.278;9.708;2024-03-08T08:29:28;16.05;;;8.20;;
48207;SDS011;33997;53.278;9.708;2024-03-08T08:31:55;17.50;;;9.13;;
48207;SDS011;33997;53.278;9.708;2024-03-08T08:34:24;18.65;;;8.55;;
48207;SDS011;33997;53.278;9.708;2024-03-08T08:36:51;17.73;;;10.13;;
48207;SDS011;33997;53.278;9.708;2024-03-08T08:39:17;15.95;;;8.15;;
48207;SDS011;33997;53.278;9.708;2024-03-08T08:41:43;15.73;;;7.53;;
48207;SDS011;33997;53.278;9.708;2024-03-08T08:44:08;16.70;;;7.63;;
48207;SDS011;33997;53.278;9.708;2024-03-08T08:46:35;21.55;;;10.95;;
48207;SDS011;33997;53.278;9.708;2024-03-08T08:49:02;20.33;;;8.43;;
48207;SDS011;33997;53.278;9.708;2024-03-08T08:51:28;17.17;;;8.10;;
48207;SDS011;33997;53.278;9.708;2024-03-08T08:53:53;19.55;;;8.57;;
48207;SDS011;33997;53.278;9.708;2024-03-08T08:56:20;19.80;;;9.43;;
48207;SDS011;33997;53.278;9.708;2024-03-08T08:58:47;15.57;;;7.53;;
48207;SDS011;33997;53.278;9.708;2024-03-08T09:01:13;14.52;;;8.52;;
48207;SDS011;33997;53.278;9.708;2024-03-08T09:03:39;14.63;;;7.10;;
48207;SDS011;33997;53.278;9.708;2024-03-08T09:06:11;16.92;;;8.93;;
48207;SDS011;33997;53.278;9.708;2024-03-08T09:08:38;15.88;;;7.45;;
48207;SDS011;33997;53.278;9.708;2024-03-08T09:11:06;15.75;;;7.80;;
48207;SDS011;33997;53.278;9.708;2024-03-08T09:13:32;11.93;;;6.15;;
48207;SDS011;33997;53.278;9.708;2024-03-08T09:16:01;15.35;;;8.23;;
48207;SDS011;33997;53.278;9.708;2024-03-08T09:18:27;13.18;;;6.78;;
48207;SDS011;33997;53.278;9.708;2024-03-08T09:20:54;15.20;;;5.97;;
48207;SDS011;33997;53.278;9.708;2024-03-08T09:23:19;12.52;;;7.13;;
48207;SDS011;33997;53.278;9.708;2024-03-08T09:25:45;14.55;;;6.88;;
48207;SDS011;33997;53.278;9.708;2024-03-08T09:28:11;12.38;;;5.90;;
48207;SDS011;33997;53.278;9.708;2024-03-08T09:30:37;17.88;;;7.25;;
48207;SDS011;33997;53.278;9.708;2024-03-08T09:33:04;13.60;;;5.90;;
48207;SDS011;33997;53.278;9.708;2024-03-08T09:35:30;12.05;;;6.53;;
48207;SDS011;33997;53.278;9.708;2024-03-08T09:37:56;12.13;;;5.97;;
48207;SDS011;33997;53.278;9.708;2024-03-08T09:40:21;11.90;;;6.15;;
48207;SDS011;33997;53.278;9.708;2024-03-08T09:42:49;13.88;;;7.40;;
48207;SDS011;33997;53.278;9.708;2024-03-08T09:45:15;13.02;;;6.78;;
48207;SDS011;33997;53.278;9.708;2024-03-08T09:47:42;13.02;;;6.18;;
48207;SDS011;33997;53.278;9.708;2024-03-08T09:50:09;14.23;;;6.38;;
48207;SDS011;33997;53.278;9.708;2024-03-08T09:52:37;12.48;;;7.00;;
48207;SDS011;33997;53.278;9.708;2024-03-08T09:55:07;10.77;;;6.05;;
48207;SDS011;33997;53.278;9.708;2024-03-08T09:57:35;14.18;;;6.13;;
48207;SDS011;33997;53.278;9.708;2024-03-08T10:00:02;11.00;;;7.10;;
48207;SDS011;33997;53.278;9.708;2024-03-08T10:02:33;13.10;;;6.47;;
48207;SDS011;33997;53.278;9.708;2024-03-08T10:05:00;12.20;;;6.57;;
48207;SDS011;33997;53.278;9.708;2024-03-08T10:07:28;9.98;;;5.28;;
48207;SDS011;33997;53.278;9.708;2024-03-08T10:09:53;13.57;;;6.13;;
48207;SDS011;33997;53.278;9.708;2024-03-08T10:12:19;13.82;;;6.50;;
48207;SDS011;33997;53.278;9.708;2024-03-08T10:14:45;11.77;;;5.68;;
48207;SDS011;33997;53.278;9.708;2024-03-08T10:17:11;9.63;;;5.13;;
48207;SDS011;33997;53.278;9.708;2024-03-08T10:19:37;10.07;;;5.75;;
48207;SDS011;33997;53.278;9.708;2024-03-08T10:22:03;11.50;;;5.80;;
48207;SDS011;33997;53.278;9.708;2024-03-08T10:24:30;11.68;;;6.65;;
48207;SDS011;33997;53.278;9.708;2024-03-08T10:26:59;11.23;;;5.97;;
48207;SDS011;33997;53.278;9.708;2024-03-08T10:29:26;10.93;;;5.85;;
48207;SDS011;33997;53.278;9.708;2024-03-08T10:31:53;12.45;;;6.80;;
48207;SDS011;33997;53.278;9.708;2024-03-08T10:34:20;8.63;;;5.40;;
48207;SDS011;33997;53.278;9.708;2024-03-08T10:36:48;11.27;;;6.10;;
48207;SDS011;33997;53.278;9.708;2024-03-08T10:39:21;10.48;;;5.53;;
48207;SDS011;33997;53.278;9.708;2024-03-08T10:41:58;9.90;;;5.68;;
48207;SDS011;33997;53.278;9.708;2024-03-08T10:47:02;9.93;;;5.28;;
48207;SDS011;33997;53.278;9.708;2024-03-08T10:49:38;10.45;;;5.53;;
48207;SDS011;33997;53.278;9.708;2024-03-08T10:52:14;11.13;;;5.43;;
48207;SDS011;33997;53.278;9.708;2024-03-08T10:54:42;13.50;;;5.90;;
48207;SDS011;33997;53.278;9.708;2024-03-08T10:57:09;12.13;;;5.20;;
48207;SDS011;33997;53.278;9.708;2024-03-08T10:59:38;10.90;;;5.75;;
48207;SDS011;33997;53.278;9.708;2024-03-08T11:02:04;13.32;;;6.47;;
48207;SDS011;33997;53.278;9.708;2024-03-08T11:04:31;9.38;;;5.20;;
48207;SDS011;33997;53.278;9.708;2024-03-08T11:07:01;11.20;;;5.63;;
48207;SDS011;33997;53.278;9.708;2024-03-08T11:09:30;10.80;;;5.70;;
48207;SDS011;33997;53.278;9.708;2024-03-08T11:14:54;12.32;;;5.28;;
48207;SDS011;33997;53.278;9.708;2024-03-08T11:19:56;12.75;;;6.05;;
48207;SDS011;33997;53.278;9.708;2024-03-08T11:22:29;11.23;;;5.93;;
48207;SDS011;33997;53.278;9.708;2024-03-08T11:24:59;12.88;;;5.65;;
48207;SDS011;33997;53.278;9.708;2024-03-08T11:27:30;10.80;;;5.35;;
48207;SDS011;33997;53.278;9.708;2024-03-08T11:30:03;11.07;;;5.28;;
48207;SDS011;33997;53.278;9.708;2024-03-08T11:32:47;11.38;;;6.43;;
48207;SDS011;33997;53.278;9.708;2024-03-08T11:35:20;11.05;;;5.13;;
48207;SDS011;33997;53.278;9.708;2024-03-08T11:37:47;12.15;;;6.60;;
48207;SDS011;33997;53.278;9.708;2024-03-08T11:40:13;9.13;;;4.68;;
48207;SDS011;33997;53.278;9.708;2024-03-08T11:42:44;11.23;;;5.53;;
48207;SDS011;33997;53.278;9.708;2024-03-08T11:45:12;11.18;;;5.65;;
48207;SDS011;33997;53.278;9.708;2024-03-08T11:47:38;10.20;;;5.38;;
48207;SDS011;33997;53.278;9.708;2024-03-08T11:50:06;11.00;;;5.50;;
48207;SDS011;33997;53.278;9.708;2024-03-08T11:52:35;12.57;;;5.82;;
48207;SDS011;33997;53.278;9.708;2024-03-08T11:55:01;13.07;;;6.22;;
48207;SDS011;33997;53.278;9.708;2024-03-08T11:57:30;9.77;;;4.97;;
48207;SDS011;33997;53.278;9.708;2024-03-08T11:59:56;11.25;;;5.53;;
48207;SDS011;33997;53.278;9.708;2024-03-08T12:02:23;9.75;;;5.22;;
48207;SDS011;33997;53.278;9.708;2024-03-08T12:04:59;10.68;;;5.90;;
48207;SDS011;33997;53.278;9.708;2024-03-08T12:07:26;8.40;;;4.80;;
48207;SDS011;33997;53.278;9.708;2024-03-08T12:12:44;10.07;;;5.15;;
48207;SDS011;33997;53.278;9.708;2024-03-08T12:15:11;10.98;;;5.22;;
48207;SDS011;33997;53.278;9.708;2024-03-08T12:17:37;9.98;;;5.43;;
48207;SDS011;33997;53.278;9.708;2024-03-08T12:20:16;9.45;;;5.28;;
48207;SDS011;33997;53.278;9.708;2024-03-08T12:22:44;11.55;;;5.38;;
48207;SDS011;33997;53.278;9.708;2024-03-08T12:25:10;10.60;;;5.30;;
48207;SDS011;33997;53.278;9.708;2024-03-08T12:27:38;10.48;;;5.55;;
48207;SDS011;33997;53.278;9.708;2024-03-08T12:32:53;11.07;;;5.25;;
48207;SDS011;33997;53.278;9.708;2024-03-08T12:35:24;9.77;;;5.32;;
48207;SDS011;33997;53.278;9.708;2024-03-08T12:37:55;10.35;;;5.10;;
48207;SDS011;33997;53.278;9.708;2024-03-08T12:40:31;10.50;;;4.90;;
48207;SDS011;33997;53.278;9.708;2024-03-08T12:42:59;9.88;;;4.88;;
48207;SDS011;33997;53.278;9.708;2024-03-08T12:45:25;9.88;;;5.57;;
48207;SDS011;33997;53.278;9.708;2024-03-08T12:47:51;13.10;;;5.68;;
48207;SDS011;33997;53.278;9.708;2024-03-08T12:50:18;9.48;;;5.45;;
48207;SDS011;33997;53.278;9.708;2024-03-08T12:52:44;9.57;;;4.93;;
48207;SDS011;33997;53.278;9.708;2024-03-08T12:55:09;10.38;;;5.18;;
48207;SDS011;33997;53.278;9.708;2024-03-08T12:57:35;8.18;;;4.18;;
48207;SDS011;33997;53.278;9.708;2024-03-08T13:00:02;8.63;;;4.72;;
48207;SDS011;33997;53.278;9.708;2024-03-08T13:02:29;11.35;;;5.07;;
48207;SDS011;33997;53.278;9.708;2024-03-08T13:04:57;8.00;;;4.20;;
48207;SDS011;33997;53.278;9.708;2024-03-08T13:07:23;8.65;;;4.63;;
48207;SDS011;33997;53.278;9.708;2024-03-08T13:09:51;10.35;;;5.07;;
48207;SDS011;33997;53.278;9.708;2024-03-08T13:12:20;8.95;;;4.68;;
48207;SDS011;33997;53.278;9.708;2024-03-08T13:14:46;11.23;;;5.75;;
48207;SDS011;33997;53.278;9.708;2024-03-08T13:17:13;9.40;;;4.88;;
48207;SDS011;33997;53.278;9.708;2024-03-08T13:19:39;9.63;;;4.70;;
48207;SDS011;33997;53.278;9.708;2024-03-08T13:22:05;10.57;;;5.60;;
48207;SDS011;33997;53.278;9.708;2024-03-08T13:24:31;9.98;;;5.47;;
48207;SDS011;33997;53.278;9.708;2024-03-08T13:26:56;10.35;;;5.07;;
48207;SDS011;33997;53.278;9.708;2024-03-08T13:29:23;10.32;;;5.28;;
48207;SDS011;33997;53.278;9.708;2024-03-08T13:31:48;10.07;;;5.07;;
48207;SDS011;33997;53.278;9.708;2024-03-08T13:34:16;8.52;;;4.53;;
48207;SDS011;33997;53.278;9.708;2024-03-08T13:36:43;8.80;;;4.43;;
48207;SDS011;33997;53.278;9.708;2024-03-08T13:39:09;10.43;;;5.07;;
48207;SDS011;33997;53.278;9.708;2024-03-08T13:41:41;8.65;;;4.78;;
48207;SDS011;33997;53.278;9.708;2024-03-08T13:44:06;11.77;;;5.15;;
48207;SDS011;33997;53.278;9.708;2024-03-08T13:46:32;8.70;;;4.53;;
48207;SDS011;33997;53.278;9.708;2024-03-08T13:49:02;11.43;;;4.82;;
48207;SDS011;33997;53.278;9.708;2024-03-08T13:51:31;8.68;;;4.60;;
48207;SDS011;33997;53.278;9.708;2024-03-08T13:53:57;8.32;;;4.03;;
48207;SDS011;33997;53.278;9.708;2024-03-08T13:56:23;8.43;;;4.10;;
48207;SDS011;33997;53.278;9.708;2024-03-08T13:58:48;8.27;;;4.13;;
48207;SDS011;33997;53.278;9.708;2024-03-08T14:01:13;10.38;;;4.50;;
48207;SDS011;33997;53.278;9.708;2024-03-08T14:03:39;9.07;;;4.85;;
48207;SDS011;33997;53.278;9.708;2024-03-08T14:06:08;7.28;;;4.25;;
48207;SDS011;33997;53.278;9.708;2024-03-08T14:08:34;9.45;;;4.10;;
48207;SDS011;33997;53.278;9.708;2024-03-08T14:11:03;8.15;;;4.05;;
48207;SDS011;33997;53.278;9.708;2024-03-08T14:13:40;11.32;;;4.78;;
48207;SDS011;33997;53.278;9.708;2024-03-08T14:16:10;7.57;;;3.88;;
48207;SDS011;33997;53.278;9.708;2024-03-08T14:18:35;8.85;;;4.20;;
48207;SDS011;33997;53.278;9.708;2024-03-08T14:21:01;8.90;;;4.03;;
48207;SDS011;33997;53.278;9.708;2024-03-08T14:23:29;6.90;;;3.67;;
48207;SDS011;33997;53.278;9.708;2024-03-08T14:25:54;7.85;;;4.30;;
48207;SDS011;33997;53.278;9.708;2024-03-08T14:28:20;10.82;;;4.50;;
48207;SDS011;33997;53.278;9.708;2024-03-08T14:30:47;9.02;;;4.05;;
48207;SDS011;33997;53.278;9.708;2024-03-08T14:33:13;8.98;;;4.30;;
48207;SDS011;33997;53.278;9.708;2024-03-08T14:35:39;8.60;;;4.18;;
48207;SDS011;33997;53.278;9.708;2024-03-08T14:38:05;7.20;;;4.00;;
48207;SDS011;33997;53.278;9.708;2024-03-08T14:40:33;9.02;;;4.32;;
48207;SDS011;33997;53.278;9.708;2024-03-08T14:42:59;7.10;;;3.95;;
48207;SDS011;33997;53.278;9.708;2024-03-08T14:45:25;9.18;;;4.43;;
48207;SDS011;33997;53.278;9.708;2024-03-08T14:47:51;9.73;;;4.90;;
48207;SDS011;33997;53.278;9.708;2024-03-08T14:50:17;8.63;;;4.78;;
48207;SDS011;33997;53.278;9.708;2024-03-08T14:55:14;10.27;;;4.40;;
48207;SDS011;33997;53.278;9.708;2024-03-08T14:57:40;9.10;;;4.72;;